createdAt,value
2017-08-09T00:00:45.498Z,22.5
2017-08-09T00:01:44.563Z,22.5
2017-08-09T00:02:44.014Z,22.4
2017-08-09T00:03:43.473Z,22.4
2017-08-09T00:04:42.813Z,22.4
2017-08-09T00:05:42.385Z,22.3
2017-08-09T00:06:41.948Z,22.3
2017-08-09T00:07:41.135Z,22.3
2017-08-09T00:08:40.714Z,22.3
2017-08-09T00:09:39.663Z,22.3
2017-08-09T00:10:39.364Z,22.3
2017-08-09T00:11:38.821Z,22.3
2017-08-09T00:12:38.506Z,22.3
2017-08-09T00:13:37.692Z,22.3
2017-08-09T00:14:36.794Z,22.3
2017-08-09T00:15:36.376Z,22.3
2017-08-09T00:16:35.717Z,22.3
2017-08-09T00:17:35.408Z,22.3
2017-08-09T00:18:34.590Z,22.3
2017-08-09T00:19:33.920Z,22.3
2017-08-09T00:20:33.501Z,22.3
2017-08-09T00:21:32.973Z,22.3
2017-08-09T00:22:32.030Z,22.3
2017-08-09T00:23:31.744Z,22.3
2017-08-09T00:24:30.947Z,22.3
2017-08-09T00:25:30.636Z,22.3
2017-08-09T00:26:29.700Z,22.3
2017-08-09T00:27:29.279Z,22.3
2017-08-09T00:27:59.809Z,22.3
2017-08-09T00:28:30.179Z,22.3
2017-08-09T00:29:00.685Z,22.3
2017-08-09T00:29:31.078Z,22.3
2017-08-09T00:30:01.462Z,22.3
2017-08-09T00:30:31.839Z,22.3
2017-08-09T00:31:02.339Z,22.3
2017-08-09T00:31:32.596Z,22.3
2017-08-09T00:32:02.852Z,22.3
2017-08-09T00:33:25.718Z,22.2
2017-08-09T00:34:24.661Z,22.2
2017-08-09T00:35:23.997Z,22.2
2017-08-09T00:36:23.457Z,22.2
2017-08-09T00:37:23.046Z,22.2
2017-08-09T00:39:22.003Z,22.2
2017-08-09T00:40:21.571Z,22.1
2017-08-09T00:41:20.635Z,22.1
2017-08-09T00:42:20.326Z,22.1
2017-08-09T00:42:50.728Z,22.1
2017-08-09T00:43:21.128Z,22.1
2017-08-09T00:44:18.813Z,22.1
2017-08-09T00:45:18.506Z,22.1
2017-08-09T00:46:17.700Z,22.1
2017-08-09T00:47:17.263Z,22.1
2017-08-09T00:48:16.475Z,22.1
2017-08-09T00:49:16.171Z,22.1
2017-08-09T00:50:15.354Z,22.1
2017-08-09T00:52:14.443Z,22.1
2017-08-09T00:53:13.630Z,22.1
2017-08-09T00:54:13.196Z,22.1
2017-08-09T00:55:12.269Z,22.1
2017-08-09T00:56:11.958Z,22.1
2017-08-09T00:57:11.151Z,22.1
2017-08-09T00:58:10.113Z,22.1
2017-08-09T00:59:09.447Z,22
2017-08-09T01:00:09.151Z,22
2017-08-09T01:00:39.653Z,22
2017-08-09T01:01:10.159Z,22
2017-08-09T01:02:08.123Z,21.9
2017-08-09T01:03:07.307Z,22
2017-08-09T01:04:06.887Z,21.9
2017-08-09T01:05:06.253Z,21.8
2017-08-09T01:06:05.952Z,21.9
2017-08-09T01:07:05.147Z,21.9
2017-08-09T01:08:04.333Z,21.9
2017-08-09T01:09:03.907Z,21.9
2017-08-09T01:10:03.089Z,21.9
2017-08-09T01:11:02.433Z,22
2017-08-09T01:12:02.119Z,21.9
2017-08-09T01:13:01.686Z,21.9
2017-08-09T01:14:00.629Z,21.8
2017-08-09T01:15:00.202Z,21.9
2017-08-09T01:15:59.893Z,21.9
2017-08-09T01:16:58.974Z,22
2017-08-09T01:17:58.661Z,22
2017-08-09T01:18:57.879Z,21.9
2017-08-09T01:19:56.714Z,22
2017-08-09T01:20:56.290Z,22
2017-08-09T01:21:26.657Z,22
2017-08-09T01:21:57.036Z,21.9
2017-08-09T01:22:27.414Z,21.9
2017-08-09T01:23:54.675Z,21.9
2017-08-09T01:24:54.126Z,21.9
2017-08-09T01:25:53.201Z,21.9
2017-08-09T01:26:52.775Z,21.9
2017-08-09T01:27:52.339Z,21.9
2017-08-09T01:28:51.514Z,21.8
2017-08-09T01:29:51.088Z,21.8
2017-08-09T01:30:50.278Z,21.8
2017-08-09T01:31:49.993Z,21.9
2017-08-09T01:33:48.600Z,21.9
2017-08-09T01:34:47.809Z,21.8
2017-08-09T01:35:47.499Z,21.8
2017-08-09T01:36:46.685Z,21.8
2017-08-09T01:37:46.141Z,21.8
2017-08-09T01:38:45.830Z,21.8
2017-08-09T01:39:45.012Z,21.7
2017-08-09T01:40:44.082Z,21.6
2017-08-09T01:41:43.539Z,21.6
2017-08-09T01:42:42.993Z,21.6
2017-08-09T01:43:42.576Z,21.6
2017-08-09T01:44:42.041Z,21.6
2017-08-09T01:45:41.232Z,21.6
2017-08-09T01:46:40.818Z,21.6
2017-08-09T01:47:39.881Z,21.6
2017-08-09T01:48:39.568Z,21.6
2017-08-09T01:49:38.643Z,21.6
2017-08-09T01:50:38.215Z,21.6
2017-08-09T01:51:37.280Z,21.6
2017-08-09T01:52:36.844Z,21.6
2017-08-09T01:53:36.530Z,21.6
2017-08-09T01:54:35.621Z,21.6
2017-08-09T01:55:35.318Z,21.6
2017-08-09T01:56:34.522Z,21.6
2017-08-09T01:57:33.613Z,21.6
2017-08-09T01:58:33.187Z,21.6
2017-08-09T01:59:32.880Z,21.6
2017-08-09T02:00:31.969Z,21.5
2017-08-09T02:01:31.540Z,21.5
2017-08-09T02:02:30.740Z,21.5
2017-08-09T02:03:30.187Z,21.5
2017-08-09T02:04:29.668Z,21.5
2017-08-09T02:05:28.742Z,21.5
2017-08-09T02:06:28.441Z,21.5
2017-08-09T02:07:27.625Z,21.5
2017-08-09T02:08:27.201Z,21.5
2017-08-09T02:09:26.387Z,21.5
2017-08-09T02:10:25.952Z,21.5
2017-08-09T02:11:25.018Z,21.4
2017-08-09T02:12:24.461Z,21.3
2017-08-09T02:13:23.961Z,21.4
2017-08-09T02:14:23.536Z,21.3
2017-08-09T02:15:22.718Z,21.3
2017-08-09T02:16:22.404Z,21.3
2017-08-09T02:17:21.474Z,21.3
2017-08-09T02:18:20.305Z,21.3
2017-08-09T02:18:51.061Z,21.3
2017-08-09T02:19:21.429Z,21.3
2017-08-09T02:19:51.938Z,21.3
2017-08-09T02:21:18.804Z,21.3
2017-08-09T02:22:18.378Z,21.3
2017-08-09T02:23:17.437Z,21.3
2017-08-09T02:24:17.130Z,21.3
2017-08-09T02:25:16.318Z,21.3
2017-08-09T02:26:15.903Z,21.2
2017-08-09T02:27:15.111Z,21.2
2017-08-09T02:28:14.810Z,21.2
2017-08-09T02:29:14.011Z,21.1
2017-08-09T02:30:13.590Z,21.1
2017-08-09T02:30:43.864Z,21.1
2017-08-09T02:31:14.249Z,21.1
2017-08-09T02:31:44.528Z,21.1
2017-08-09T02:33:11.287Z,21
2017-08-09T02:34:10.866Z,21
2017-08-09T02:35:10.060Z,21
2017-08-09T02:36:09.532Z,21
2017-08-09T02:37:09.236Z,21
2017-08-09T02:38:08.446Z,21
2017-08-09T02:39:07.521Z,21
2017-08-09T02:40:07.277Z,21
2017-08-09T02:41:06.384Z,20.9
2017-08-09T02:42:05.713Z,21
2017-08-09T02:43:05.298Z,21
2017-08-09T02:44:04.496Z,21
2017-08-09T02:45:04.209Z,21
2017-08-09T02:46:03.296Z,21
2017-08-09T02:47:02.514Z,21
2017-08-09T02:48:02.097Z,20.9
2017-08-09T02:48:32.615Z,20.9
2017-08-09T02:49:03.113Z,20.9
2017-08-09T02:49:33.619Z,20.9
2017-08-09T02:50:03.896Z,20.9
2017-08-09T02:50:34.396Z,20.9
2017-08-09T02:51:04.787Z,20.9
2017-08-09T02:51:35.287Z,20.9
2017-08-09T02:52:58.631Z,21
2017-08-09T02:53:58.216Z,20.9
2017-08-09T02:54:57.301Z,20.9
2017-08-09T02:55:57.003Z,20.9
2017-08-09T02:56:56.202Z,20.8
2017-08-09T02:57:55.655Z,20.8
2017-08-09T02:58:54.857Z,20.8
2017-08-09T02:59:54.203Z,20.8
2017-08-09T03:00:53.790Z,20.8
2017-08-09T03:01:52.862Z,20.8
2017-08-09T03:03:51.960Z,20.8
2017-08-09T03:04:51.155Z,20.8
2017-08-09T03:05:50.729Z,20.8
2017-08-09T03:06:49.929Z,20.7
2017-08-09T03:07:48.989Z,20.7
2017-08-09T03:08:48.694Z,20.8
2017-08-09T03:09:47.780Z,20.8
2017-08-09T03:10:47.345Z,20.7
2017-08-09T03:11:46.819Z,20.7
2017-08-09T03:12:17.330Z,20.7
2017-08-09T03:13:45.699Z,20.7
2017-08-09T03:14:44.650Z,20.7
2017-08-09T03:15:44.241Z,20.6
2017-08-09T03:16:43.324Z,20.7
2017-08-09T03:17:42.899Z,20.6
2017-08-09T03:18:41.861Z,20.6
2017-08-09T03:19:41.328Z,20.6
2017-08-09T03:20:40.917Z,20.6
2017-08-09T03:21:39.877Z,20.6
2017-08-09T03:22:39.585Z,20.6
2017-08-09T03:23:39.282Z,20.6
2017-08-09T03:24:38.495Z,20.6
2017-08-09T03:26:36.852Z,20.6
2017-08-09T03:27:36.318Z,20.6
2017-08-09T03:28:35.661Z,20.5
2017-08-09T03:29:35.354Z,20.5
2017-08-09T03:30:34.563Z,20.5
2017-08-09T03:31:33.764Z,20.5
2017-08-09T03:33:32.750Z,20.5
2017-08-09T03:34:31.943Z,20.5
2017-08-09T03:35:31.138Z,20.5
2017-08-09T03:36:30.832Z,20.5
2017-08-09T03:37:29.918Z,20.5
2017-08-09T03:38:29.650Z,20.5
2017-08-09T03:39:28.616Z,20.5
2017-08-09T03:40:28.198Z,20.5
2017-08-09T03:41:27.393Z,20.5
2017-08-09T03:42:26.348Z,20.5
2017-08-09T03:42:56.866Z,20.5
2017-08-09T03:43:27.245Z,20.5
2017-08-09T03:44:25.717Z,20.5
2017-08-09T03:45:24.793Z,20.4
2017-08-09T03:46:23.990Z,20.4
2017-08-09T03:47:23.704Z,20.4
2017-08-09T03:48:23.348Z,20.4
2017-08-09T03:49:21.911Z,20.4
2017-08-09T03:50:21.379Z,20.4
2017-08-09T03:51:21.072Z,20.4
2017-08-09T03:52:20.274Z,20.4
2017-08-09T03:53:19.464Z,20.4
2017-08-09T03:54:19.172Z,20.4
2017-08-09T03:55:18.250Z,20.4
2017-08-09T03:56:17.750Z,20.5
2017-08-09T03:57:16.715Z,20.4
2017-08-09T03:58:16.293Z,20.4
2017-08-09T03:58:46.794Z,20.4
2017-08-09T03:59:17.171Z,20.3
2017-08-09T04:00:14.868Z,20.4
2017-08-09T04:01:14.560Z,20.4
2017-08-09T04:02:13.642Z,20.5
2017-08-09T04:03:13.350Z,20.5
2017-08-09T04:04:12.545Z,20.5
2017-08-09T04:05:11.754Z,20.4
2017-08-09T04:06:10.852Z,20.4
2017-08-09T04:07:10.551Z,20.3
2017-08-09T04:08:09.737Z,20.4
2017-08-09T04:09:09.426Z,20.5
2017-08-09T04:10:08.511Z,20.5
2017-08-09T04:11:07.464Z,20.5
2017-08-09T04:12:06.943Z,20.5
2017-08-09T04:13:06.705Z,20.6
2017-08-09T04:14:05.931Z,20.6
2017-08-09T04:15:04.903Z,20.6
2017-08-09T04:16:04.601Z,20.6
2017-08-09T04:17:04.053Z,20.6
2017-08-09T04:18:03.132Z,20.6
2017-08-09T04:19:02.605Z,20.6
2017-08-09T04:20:02.293Z,20.6
2017-08-09T04:21:01.498Z,20.6
2017-08-09T04:22:00.694Z,20.6
2017-08-09T04:23:00.278Z,20.6
2017-08-09T04:23:59.483Z,20.6
2017-08-09T04:24:58.681Z,20.5
2017-08-09T04:25:58.274Z,20.6
2017-08-09T04:26:57.458Z,20.6
2017-08-09T04:27:56.537Z,20.6
2017-08-09T04:28:56.228Z,20.7
2017-08-09T04:29:55.190Z,20.7
2017-08-09T04:30:54.671Z,20.8
2017-08-09T04:31:54.363Z,20.7
2017-08-09T04:32:53.573Z,20.7
2017-08-09T04:33:52.532Z,20.7
2017-08-09T04:35:51.378Z,20.6
2017-08-09T04:36:50.730Z,20.7
2017-08-09T04:37:50.415Z,20.6
2017-08-09T04:38:20.689Z,20.6
2017-08-09T04:38:51.192Z,20.7
2017-08-09T04:39:21.691Z,20.7
2017-08-09T04:39:52.191Z,20.6
2017-08-09T04:40:22.353Z,20.6
2017-08-09T04:40:53.372Z,20.6
2017-08-09T04:41:23.780Z,20.6
2017-08-09T04:42:47.015Z,20.7
2017-08-09T04:43:46.203Z,20.6
2017-08-09T04:44:45.320Z,20.6
2017-08-09T04:45:44.789Z,20.7
2017-08-09T04:46:44.487Z,20.8
2017-08-09T04:47:43.682Z,20.8
2017-08-09T04:48:42.839Z,20.8
2017-08-09T04:49:42.540Z,20.8
2017-08-09T04:50:12.929Z,20.8
2017-08-09T04:50:43.436Z,20.8
2017-08-09T04:51:13.837Z,20.8
2017-08-09T04:51:44.237Z,20.8
2017-08-09T04:52:14.510Z,20.8
2017-08-09T04:53:39.874Z,20.8
2017-08-09T04:54:38.966Z,20.8
2017-08-09T04:55:38.669Z,20.8
2017-08-09T04:56:37.885Z,20.8
2017-08-09T04:57:36.845Z,20.8
2017-08-09T04:58:36.421Z,20.8
2017-08-09T04:59:35.876Z,20.8
2017-08-09T05:00:35.460Z,20.9
2017-08-09T05:01:34.534Z,21
2017-08-09T05:02:33.721Z,21
2017-08-09T05:03:33.435Z,21.1
2017-08-09T05:04:32.511Z,21
2017-08-09T05:05:31.714Z,21.1
2017-08-09T05:06:31.402Z,21.1
2017-08-09T05:07:30.618Z,21.1
2017-08-09T05:08:30.199Z,21.1
2017-08-09T05:09:29.280Z,21.1
2017-08-09T05:10:28.227Z,21.1
2017-08-09T05:11:27.969Z,21.1
2017-08-09T05:12:27.171Z,21.1
2017-08-09T05:13:26.865Z,21
2017-08-09T05:14:25.943Z,21
2017-08-09T05:15:25.517Z,21
2017-08-09T05:16:24.979Z,21
2017-08-09T05:17:24.057Z,21
2017-08-09T05:18:23.663Z,21
2017-08-09T05:19:22.622Z,21
2017-08-09T05:20:22.327Z,21
2017-08-09T05:21:21.518Z,21
2017-08-09T05:22:20.709Z,21
2017-08-09T05:23:20.296Z,20.9
2017-08-09T05:24:19.492Z,20.9
2017-08-09T05:26:18.096Z,21
2017-08-09T05:27:17.796Z,21
2017-08-09T05:28:16.871Z,20.9
2017-08-09T05:29:15.853Z,20.9
2017-08-09T05:30:15.554Z,21
2017-08-09T05:31:14.627Z,21
2017-08-09T05:31:45.270Z,21
2017-08-09T05:33:13.661Z,20.9
2017-08-09T05:34:12.613Z,20.9
2017-08-09T05:35:12.195Z,20.9
2017-08-09T05:36:11.772Z,20.8
2017-08-09T05:37:10.964Z,20.8
2017-08-09T05:38:10.662Z,20.9
2017-08-09T05:39:09.880Z,20.9
2017-08-09T05:40:08.957Z,21
2017-08-09T05:41:08.286Z,21
2017-08-09T05:42:07.980Z,20.9
2017-08-09T05:43:07.179Z,21
2017-08-09T05:44:06.141Z,21
2017-08-09T05:46:05.235Z,21
2017-08-09T05:47:04.699Z,21
2017-08-09T05:47:35.213Z,21
2017-08-09T05:48:05.611Z,21
2017-08-09T05:49:03.194Z,21
2017-08-09T05:50:02.891Z,21.1
2017-08-09T05:52:01.358Z,21.1
2017-08-09T05:53:00.539Z,21.1
2017-08-09T05:54:00.233Z,21.1
2017-08-09T05:54:59.314Z,21.1
2017-08-09T05:55:59.018Z,21
2017-08-09T05:56:58.215Z,21.1
2017-08-09T05:57:57.408Z,21.1
2017-08-09T05:58:56.597Z,21.1
2017-08-09T05:59:56.061Z,21.1
2017-08-09T06:00:55.650Z,21.1
2017-08-09T06:01:54.721Z,21.1
2017-08-09T06:02:54.309Z,21.1
2017-08-09T06:03:53.502Z,21.1
2017-08-09T06:04:53.079Z,21.1
2017-08-09T06:05:52.267Z,21.1
2017-08-09T06:06:51.597Z,21.1
2017-08-09T06:07:51.287Z,21.1
2017-08-09T06:08:50.365Z,21.1
2017-08-09T06:09:49.832Z,21.1
2017-08-09T06:10:48.908Z,21.1
2017-08-09T06:11:48.486Z,21.1
2017-08-09T06:12:47.673Z,21.1
2017-08-09T06:13:47.265Z,21.2
2017-08-09T06:14:46.458Z,21.3
2017-08-09T06:15:45.649Z,21.3
2017-08-09T06:16:45.357Z,21.4
2017-08-09T06:17:44.442Z,21.4
2017-08-09T06:18:14.814Z,21.4
2017-08-09T06:18:45.191Z,21.5
2017-08-09T06:19:43.379Z,21.5
2017-08-09T06:20:42.462Z,21.5
2017-08-09T06:21:41.926Z,21.5
2017-08-09T06:22:41.513Z,21.6
2017-08-09T06:23:41.018Z,21.6
2017-08-09T06:24:40.088Z,21.6
2017-08-09T06:25:39.159Z,21.6
2017-08-09T06:26:38.865Z,21.6
2017-08-09T06:27:38.323Z,21.6
2017-08-09T06:28:37.398Z,21.6
2017-08-09T06:29:36.746Z,21.7
2017-08-09T06:30:36.446Z,21.8
2017-08-09T06:31:35.517Z,21.8
2017-08-09T06:32:35.222Z,22
2017-08-09T06:33:34.427Z,22.1
2017-08-09T06:34:33.495Z,22.3
2017-08-09T06:35:33.192Z,22.3
2017-08-09T06:36:32.392Z,22.5
2017-08-09T06:37:32.094Z,22.6
2017-08-09T06:38:31.297Z,22.6
2017-08-09T06:39:01.697Z,22.6
2017-08-09T06:39:32.205Z,22.7
2017-08-09T06:40:02.610Z,22.7
2017-08-09T06:40:33.027Z,22.8
2017-08-09T06:41:03.423Z,22.8
2017-08-09T06:42:28.671Z,22.8
2017-08-09T06:43:27.742Z,22.8
2017-08-09T06:44:27.314Z,22.8
2017-08-09T06:45:26.881Z,22.8
2017-08-09T06:47:25.343Z,22.6
2017-08-09T06:48:24.909Z,22.6
2017-08-09T06:49:24.250Z,22.5
2017-08-09T06:50:23.320Z,22.5
2017-08-09T06:51:23.021Z,22.5
2017-08-09T06:52:22.608Z,22.5
2017-08-09T06:53:21.806Z,22.5
2017-08-09T06:54:21.007Z,22.5
2017-08-09T06:55:20.726Z,22.5
2017-08-09T06:56:19.932Z,22.5
2017-08-09T06:57:19.133Z,22.4
2017-08-09T06:58:18.828Z,22.4
2017-08-09T06:58:49.093Z,22.4
2017-08-09T07:00:17.257Z,22.4
2017-08-09T07:01:16.833Z,22.4
2017-08-09T07:02:16.028Z,22.4
2017-08-09T07:03:15.754Z,22.4
2017-08-09T07:04:14.836Z,22.4
2017-08-09T07:05:14.306Z,22.5
2017-08-09T07:06:13.889Z,22.5
2017-08-09T07:07:12.974Z,22.5
2017-08-09T07:08:12.436Z,22.5
2017-08-09T07:09:11.633Z,22.6
2017-08-09T07:10:11.085Z,22.6
2017-08-09T07:10:41.977Z,22.6
2017-08-09T07:11:12.377Z,22.8
2017-08-09T07:11:42.632Z,22.8
2017-08-09T07:13:09.413Z,22.9
2017-08-09T07:14:08.475Z,23
2017-08-09T07:15:08.054Z,23.1
2017-08-09T07:16:07.624Z,23.2
2017-08-09T07:17:06.850Z,23.3
2017-08-09T07:18:05.926Z,23.4
2017-08-09T07:19:05.634Z,23.4
2017-08-09T07:20:04.828Z,23.5
2017-08-09T07:21:04.303Z,23.6
2017-08-09T07:23:03.431Z,23.7
2017-08-09T07:24:02.396Z,23.8
2017-08-09T07:25:02.101Z,23.8
2017-08-09T07:26:01.056Z,23.9
2017-08-09T07:27:00.615Z,24
2017-08-09T07:27:59.723Z,24.1
2017-08-09T07:28:59.297Z,24.2
2017-08-09T07:29:58.994Z,24.3
2017-08-09T07:30:58.086Z,24.5
2017-08-09T07:31:57.786Z,24.5
2017-08-09T07:32:56.871Z,24.3
2017-08-09T07:33:56.575Z,24.4
2017-08-09T07:34:55.758Z,24.6
2017-08-09T07:35:54.718Z,24.6
2017-08-09T07:36:54.401Z,24.6
2017-08-09T07:37:54.107Z,24.8
2017-08-09T07:38:53.294Z,24.8
2017-08-09T07:39:52.880Z,24.8
2017-08-09T07:40:51.970Z,24.9
2017-08-09T07:41:51.687Z,25
2017-08-09T07:42:50.898Z,25.1
2017-08-09T07:43:50.494Z,25.1
2017-08-09T07:44:49.577Z,25
2017-08-09T07:45:49.169Z,25
2017-08-09T07:46:48.361Z,25.2
2017-08-09T07:47:48.060Z,25.2
2017-08-09T07:48:47.144Z,25.3
2017-08-09T07:49:46.860Z,25.3
2017-08-09T07:50:45.935Z,25.1
2017-08-09T07:51:45.411Z,25.2
2017-08-09T07:52:44.609Z,25.2
2017-08-09T07:53:44.305Z,25.2
2017-08-09T07:54:43.389Z,25.1
2017-08-09T07:55:42.974Z,25
2017-08-09T07:56:42.167Z,25
2017-08-09T07:57:41.636Z,25
2017-08-09T07:58:41.215Z,25.1
2017-08-09T07:59:40.186Z,25.2
2017-08-09T08:00:39.767Z,25.1
2017-08-09T08:01:39.465Z,25
2017-08-09T08:02:38.418Z,24.9
2017-08-09T08:03:37.990Z,24.8
2017-08-09T08:04:37.686Z,24.8
2017-08-09T08:05:36.760Z,24.7
2017-08-09T08:06:36.456Z,24.8
2017-08-09T08:07:35.541Z,24.7
2017-08-09T08:08:05.927Z,24.7
2017-08-09T08:08:36.072Z,24.6
2017-08-09T08:09:06.574Z,24.6
2017-08-09T08:10:33.608Z,24.6
2017-08-09T08:11:33.172Z,24.5
2017-08-09T08:12:32.879Z,24.6
2017-08-09T08:13:31.966Z,24.8
2017-08-09T08:14:31.671Z,24.8
2017-08-09T08:15:30.756Z,24.8
2017-08-09T08:16:30.224Z,25
2017-08-09T08:17:29.428Z,25.1
2017-08-09T08:18:28.890Z,25.2
2017-08-09T08:18:59.384Z,25.2
2017-08-09T08:19:29.887Z,25.3
2017-08-09T08:20:00.285Z,25.3
2017-08-09T08:20:30.787Z,25.3
2017-08-09T08:21:01.043Z,25.3
2017-08-09T08:21:31.542Z,25.4
2017-08-09T08:22:26.600Z,25.5
2017-08-09T08:23:25.452Z,25.5
2017-08-09T08:24:25.424Z,25.7
2017-08-09T08:25:24.621Z,25.7
2017-08-09T08:26:24.320Z,25.6
2017-08-09T08:27:23.530Z,25.6
2017-08-09T08:28:23.116Z,25.6
2017-08-09T08:29:22.310Z,25.6
2017-08-09T08:30:22.017Z,25.6
2017-08-09T08:31:20.985Z,25.6
2017-08-09T08:32:20.684Z,25.6
2017-08-09T08:33:19.864Z,25.6
2017-08-09T08:34:19.439Z,25.5
2017-08-09T08:35:18.626Z,25.4
2017-08-09T08:36:18.334Z,25.5
2017-08-09T08:37:17.422Z,25.5
2017-08-09T08:37:47.801Z,25.5
2017-08-09T08:38:18.308Z,25.5
2017-08-09T08:39:16.492Z,25.4
2017-08-09T08:40:15.561Z,25.3
2017-08-09T08:41:15.137Z,25.3
2017-08-09T08:43:14.224Z,25.6
2017-08-09T08:44:13.418Z,25.6
2017-08-09T08:45:12.490Z,25.8
2017-08-09T08:46:12.071Z,25.8
2017-08-09T08:47:11.652Z,25.8
2017-08-09T08:48:10.737Z,26
2017-08-09T08:49:10.318Z,25.8
2017-08-09T08:50:09.888Z,25.8
2017-08-09T08:51:09.083Z,25.8
2017-08-09T08:52:08.780Z,25.8
2017-08-09T08:53:07.988Z,26
2017-08-09T08:54:07.567Z,25.9
2017-08-09T08:55:06.693Z,25.8
2017-08-09T08:56:06.161Z,25.8
2017-08-09T08:57:05.857Z,25.9
2017-08-09T08:58:04.810Z,25.9
2017-08-09T08:58:35.312Z,25.9
2017-08-09T08:59:05.694Z,26
2017-08-09T08:59:36.082Z,26
2017-08-09T09:00:06.473Z,26
2017-08-09T09:00:36.845Z,26
2017-08-09T09:02:02.523Z,26
2017-08-09T09:03:02.245Z,25.9
2017-08-09T09:04:01.438Z,25.9
2017-08-09T09:05:01.019Z,26
2017-08-09T09:06:00.009Z,26
2017-08-09T09:06:59.601Z,26
2017-08-09T09:07:59.070Z,26.1
2017-08-09T09:08:58.773Z,26.1
2017-08-09T09:09:57.969Z,26.2
2017-08-09T09:10:57.056Z,26.2
2017-08-09T09:11:56.768Z,26.1
2017-08-09T09:12:27.155Z,26.1
2017-08-09T09:12:57.426Z,26
2017-08-09T09:13:55.495Z,26
2017-08-09T09:14:55.190Z,26
2017-08-09T09:15:54.378Z,26.1
2017-08-09T09:16:54.074Z,26
2017-08-09T09:17:53.835Z,26
2017-08-09T09:18:52.418Z,26
2017-08-09T09:19:52.014Z,26.1
2017-08-09T09:20:51.715Z,26
2017-08-09T09:21:50.794Z,26.1
2017-08-09T09:22:50.264Z,26.1
2017-08-09T09:23:49.860Z,26.1
2017-08-09T09:24:48.952Z,26.2
2017-08-09T09:25:48.530Z,26.1
2017-08-09T09:26:48.220Z,26
2017-08-09T09:27:47.318Z,26
2017-08-09T09:28:47.008Z,26.1
2017-08-09T09:29:46.205Z,26
2017-08-09T09:30:45.901Z,26
2017-08-09T09:31:16.399Z,26
2017-08-09T09:31:46.791Z,26.1
2017-08-09T09:32:17.289Z,26.1
2017-08-09T09:33:43.919Z,26.1
2017-08-09T09:34:43.126Z,26.1
2017-08-09T09:35:42.597Z,26.1
2017-08-09T09:36:42.298Z,26.1
2017-08-09T09:37:41.273Z,26.1
2017-08-09T09:38:40.972Z,26.1
2017-08-09T09:39:40.558Z,26.1
2017-08-09T09:40:39.750Z,26
2017-08-09T09:41:39.347Z,26
2017-08-09T09:42:09.857Z,26
2017-08-09T09:43:38.256Z,26
2017-08-09T09:44:37.224Z,26
2017-08-09T09:45:36.794Z,26
2017-08-09T09:46:36.395Z,26
2017-08-09T09:47:35.978Z,26
2017-08-09T09:48:35.054Z,25.9
2017-08-09T09:49:34.751Z,25.8
2017-08-09T09:50:33.949Z,25.8
2017-08-09T09:51:33.645Z,25.8
2017-08-09T09:53:32.235Z,25.9
2017-08-09T09:54:31.644Z,26
2017-08-09T09:55:31.341Z,26
2017-08-09T09:56:30.547Z,26
2017-08-09T09:57:29.887Z,26
2017-08-09T09:58:29.577Z,26
2017-08-09T09:58:59.849Z,26
2017-08-09T09:59:30.236Z,25.9
2017-08-09T10:00:28.316Z,25.9
2017-08-09T10:01:27.513Z,25.9
2017-08-09T10:02:27.211Z,25.8
2017-08-09T10:03:27.229Z,25.9
2017-08-09T10:04:25.791Z,25.8
2017-08-09T10:05:25.492Z,25.8
2017-08-09T10:06:24.570Z,25.8
2017-08-09T10:07:24.043Z,25.8
2017-08-09T10:08:23.499Z,25.8
2017-08-09T10:10:22.577Z,25.6
2017-08-09T10:11:21.769Z,25.7
2017-08-09T10:12:21.357Z,25.8
2017-08-09T10:13:21.042Z,25.6
2017-08-09T10:14:19.992Z,25.6
2017-08-09T10:15:19.579Z,25.6
2017-08-09T10:16:19.285Z,25.6
2017-08-09T10:17:18.364Z,25.6
2017-08-09T10:18:18.069Z,25.6
2017-08-09T10:19:17.256Z,25.6
2017-08-09T10:20:16.954Z,25.6
2017-08-09T10:21:16.027Z,25.6
2017-08-09T10:22:15.721Z,25.6
2017-08-09T10:23:14.957Z,25.6
2017-08-09T10:24:14.529Z,25.7
2017-08-09T10:25:13.988Z,25.8
2017-08-09T10:26:13.563Z,25.8
2017-08-09T10:27:12.760Z,25.8
2017-08-09T10:28:12.090Z,25.8
2017-08-09T10:29:11.802Z,25.7
2017-08-09T10:30:10.879Z,25.7
2017-08-09T10:31:10.471Z,25.8
2017-08-09T10:32:09.714Z,25.7
2017-08-09T10:33:09.393Z,25.6
2017-08-09T10:34:09.098Z,25.5
2017-08-09T10:35:08.307Z,25.5
2017-08-09T10:36:07.871Z,25.5
2017-08-09T10:37:06.935Z,25.4
2017-08-09T10:38:06.622Z,25.4
2017-08-09T10:38:36.901Z,25.4
2017-08-09T10:39:07.295Z,25.3
2017-08-09T10:39:37.685Z,25.3
2017-08-09T10:41:04.941Z,25.3
2017-08-09T10:42:04.526Z,25.3
2017-08-09T10:43:03.607Z,25.3
2017-08-09T10:44:03.209Z,25.3
2017-08-09T10:45:02.916Z,25.3
2017-08-09T10:46:01.991Z,25.3
2017-08-09T10:47:01.703Z,25.3
2017-08-09T10:48:00.793Z,25.3
2017-08-09T10:49:00.378Z,25.5
2017-08-09T10:49:59.962Z,25.5
2017-08-09T10:50:30.467Z,25.5
2017-08-09T10:51:00.882Z,25.5
2017-08-09T10:51:31.276Z,25.5
2017-08-09T10:52:01.778Z,25.5
2017-08-09T10:52:32.153Z,25.5
2017-08-09T10:53:02.664Z,25.5
2017-08-09T10:53:33.061Z,25.5
2017-08-09T10:54:57.055Z,25.5
2017-08-09T10:55:56.763Z,25.5
2017-08-09T10:57:55.630Z,25.5
2017-08-09T10:58:54.705Z,25.5
2017-08-09T10:59:54.140Z,25.6
2017-08-09T11:00:53.849Z,25.6
2017-08-09T11:01:53.425Z,25.6
2017-08-09T11:02:52.500Z,25.6
2017-08-09T11:03:51.962Z,25.6
2017-08-09T11:04:51.676Z,25.6
2017-08-09T11:05:51.261Z,25.6
2017-08-09T11:06:50.853Z,25.6
2017-08-09T11:07:49.917Z,25.6
2017-08-09T11:08:49.147Z,25.6
2017-08-09T11:09:48.725Z,25.6
2017-08-09T11:10:19.232Z,25.6
2017-08-09T11:10:49.735Z,25.6
2017-08-09T11:11:20.242Z,25.6
2017-08-09T11:12:47.515Z,25.6
2017-08-09T11:13:46.706Z,25.6
2017-08-09T11:14:46.290Z,25.6
2017-08-09T11:15:45.865Z,25.6
2017-08-09T11:16:45.446Z,25.7
2017-08-09T11:17:44.658Z,25.6
2017-08-09T11:18:44.126Z,25.6
2017-08-09T11:19:43.831Z,25.6
2017-08-09T11:20:43.028Z,25.6
2017-08-09T11:21:42.489Z,25.7
2017-08-09T11:22:42.090Z,25.7
2017-08-09T11:23:41.688Z,25.7
2017-08-09T11:24:11.956Z,25.7
2017-08-09T11:24:42.846Z,25.8
2017-08-09T11:25:40.410Z,25.8
2017-08-09T11:27:39.506Z,25.8
2017-08-09T11:28:38.705Z,25.8
2017-08-09T11:29:38.286Z,25.8
2017-08-09T11:30:37.750Z,25.8
2017-08-09T11:31:37.335Z,25.8
2017-08-09T11:32:36.425Z,25.8
2017-08-09T11:33:36.126Z,25.8
2017-08-09T11:34:35.837Z,25.8
2017-08-09T11:35:34.907Z,25.8
2017-08-09T11:36:34.607Z,25.8
2017-08-09T11:37:34.301Z,25.8
2017-08-09T11:38:33.497Z,25.7
2017-08-09T11:39:32.725Z,25.7
2017-08-09T11:40:32.680Z,25.7
2017-08-09T11:41:32.282Z,25.7
2017-08-09T11:42:31.228Z,25.8
2017-08-09T11:43:30.919Z,25.8
2017-08-09T11:44:30.378Z,25.8
2017-08-09T11:45:29.726Z,25.8
2017-08-09T11:46:29.091Z,25.8
2017-08-09T11:47:28.677Z,25.8
2017-08-09T11:48:28.133Z,25.8
2017-08-09T11:48:58.513Z,25.8
2017-08-09T11:50:27.274Z,25.7
2017-08-09T11:51:26.978Z,25.6
2017-08-09T11:52:26.434Z,25.6
2017-08-09T11:53:26.034Z,25.6
2017-08-09T11:54:25.114Z,25.6
2017-08-09T11:55:24.562Z,25.6
2017-08-09T11:56:24.149Z,25.6
2017-08-09T11:57:23.853Z,25.6
2017-08-09T11:58:23.433Z,25.6
2017-08-09T11:59:22.524Z,25.7
2017-08-09T12:00:22.227Z,25.7
2017-08-09T12:01:21.867Z,25.8
2017-08-09T12:02:21.451Z,25.8
2017-08-09T12:03:20.535Z,25.7
2017-08-09T12:04:20.245Z,25.8
2017-08-09T12:05:19.950Z,25.8
2017-08-09T12:06:19.034Z,25.8
2017-08-09T12:07:18.725Z,25.8
2017-08-09T12:08:18.424Z,25.8
2017-08-09T12:09:17.620Z,25.8
2017-08-09T12:10:17.207Z,25.9
2017-08-09T12:11:16.906Z,25.9
2017-08-09T12:12:16.108Z,25.9
2017-08-09T12:13:15.685Z,25.9
2017-08-09T12:15:14.772Z,25.8
2017-08-09T12:16:14.355Z,25.8
2017-08-09T12:17:13.817Z,25.8
2017-08-09T12:18:13.161Z,25.8
2017-08-09T12:19:12.867Z,25.7
2017-08-09T12:19:43.189Z,25.7
2017-08-09T12:20:13.606Z,25.6
2017-08-09T12:20:44.029Z,25.6
2017-08-09T12:21:14.434Z,25.6
2017-08-09T12:21:44.835Z,25.6
2017-08-09T12:22:15.223Z,25.6
2017-08-09T12:22:45.612Z,25.6
2017-08-09T12:24:10.242Z,25.6
2017-08-09T12:25:09.714Z,25.6
2017-08-09T12:26:09.301Z,25.6
2017-08-09T12:27:08.763Z,25.6
2017-08-09T12:28:08.224Z,25.6
2017-08-09T12:29:07.927Z,25.6
2017-08-09T12:30:07.622Z,25.7
2017-08-09T12:31:07.332Z,25.8
2017-08-09T12:32:06.409Z,25.8
2017-08-09T12:33:05.999Z,25.8
2017-08-09T12:34:05.459Z,25.8
2017-08-09T12:35:05.175Z,25.8
2017-08-09T12:37:04.150Z,25.8
2017-08-09T12:38:03.606Z,25.8
2017-08-09T12:39:03.193Z,25.8
2017-08-09T12:40:02.789Z,25.8
2017-08-09T12:41:02.497Z,25.7
2017-08-09T12:42:02.090Z,25.8
2017-08-09T12:43:01.675Z,25.8
2017-08-09T12:44:01.158Z,25.8
2017-08-09T12:45:00.628Z,25.9
2017-08-09T12:46:00.318Z,25.8
2017-08-09T12:46:59.399Z,25.7
2017-08-09T12:47:59.095Z,25.8
2017-08-09T12:48:58.792Z,25.8
2017-08-09T12:49:58.494Z,25.8
2017-08-09T12:50:57.608Z,25.8
2017-08-09T12:51:57.068Z,25.8
2017-08-09T12:52:56.773Z,25.8
2017-08-09T12:53:56.469Z,25.8